Villa Colinas de Cupey, Puerto Rico
Current Conditions -  °F | °C
As of 6:56 PM on Tuesday 25 Nov 2014 (Local Time) from TJSJ Reporting Station
Scattered Clouds Scattered Clouds  
Wind Chill: 80°   Ceiling: Unl
Heat Index: 84°   Visibility: 10mi
Dew Point: 72°   Wind: 12mph
Humidity: 76%   Direction: 70°ENE
Pressure: 30.02"   Gusts: NA
Location:  18.3754°N, 66.0577°W
Report Text: TJSJ 252256Z 07010KT 10SM SCT041 27/22 A3002 RMK AO2 SLP164 T02670222
Loading
Personal Weather Stations






























Interactive Weather Map New forecast layout! Learn more

10-Day Weather Forecast

Advertisements
Track Severe Weather on mobile